Time;durP1;ratioP1;P1;durP2;ratioP2;P2;SDS_P1;SDS_P2;PMS_P1;PMS_P2;Temp;Humidity;BMP_temperature;BMP_pressure;BME280_temperature;BME280_humidity;BME280_pressure;Samples;Min_cycle;Max_cycle;Signal;HPM_P1;HPM_P2
2021/08/11 00:00:08;;;;;;;16.23;14.00;;;;;;;;;;5094082;28;20487;-72
2021/08/11 00:02:35;;;;;;;17.90;14.80;;;;;;;;;;5094370;28;20467;-73
2021/08/11 00:05:04;;;;;;;17.20;14.63;;;;;;;;;;5094732;28;20436;-72
2021/08/11 00:07:31;;;;;;;18.47;15.20;;;;;;;;;;5093956;28;20966;-72
2021/08/11 00:09:59;;;;;;;17.67;13.80;;;;;;;;;;5094021;28;20974;-72
2021/08/11 00:12:26;;;;;;;19.60;15.10;;;;;;;;;;5094344;28;20478;-72
2021/08/11 00:14:53;;;;;;;19.03;15.90;;;;;;;;;;5093857;28;20441;-72
2021/08/11 00:17:20;;;;;;;18.40;15.50;;;;;;;;;;5094289;28;20437;-72
2021/08/11 00:19:48;;;;;;;17.07;15.17;;;;;;;;;;5094002;28;20540;-72
2021/08/11 00:22:16;;;;;;;20.20;15.50;;;;;;;;;;5094817;28;20472;-72
2021/08/11 00:24:43;;;;;;;18.33;16.10;;;;;;;;;;5093537;28;20833;-72
2021/08/11 00:27:11;;;;;;;19.73;16.13;;;;;;;;;;5093933;28;20454;-72
2021/08/11 00:29:38;;;;;;;22.70;16.27;;;;;;;;;;5093717;28;20939;-72
2021/08/11 00:32:05;;;;;;;20.47;16.00;;;;;;;;;;5093720;28;21014;-72
2021/08/11 00:34:32;;;;;;;16.60;14.80;;;;;;;;;;5094258;28;20442;-72
2021/08/11 00:36:59;;;;;;;19.07;15.80;;;;;;;;;;5093995;28;20450;-72
2021/08/11 00:39:28;;;;;;;22.67;15.73;;;;;;;;;;5094005;28;20444;-72
2021/08/11 00:41:55;;;;;;;20.50;15.20;;;;;;;;;;5093942;28;20453;-72
2021/08/11 00:44:22;;;;;;;18.37;15.90;;;;;;;;;;5093689;28;20448;-72
2021/08/11 00:46:50;;;;;;;19.03;16.70;;;;;;;;;;5093830;28;20442;-73
2021/08/11 00:49:18;;;;;;;20.13;16.57;;;;;;;;;;5093389;28;20469;-72
2021/08/11 00:51:46;;;;;;;26.70;16.20;;;;;;;;;;5093540;28;20473;-72
2021/08/11 00:54:14;;;;;;;18.70;16.70;;;;;;;;;;5093953;28;20447;-72
2021/08/11 00:56:43;;;;;;;18.07;16.17;;;;;;;;;;5093541;28;20445;-72
2021/08/11 00:59:10;;;;;;;18.97;15.80;;;;;;;;;;5093529;28;20804;-72
2021/08/11 01:01:38;;;;;;;20.23;16.53;;;;;;;;;;5093462;28;20454;-72
2021/08/11 01:04:06;;;;;;;18.77;16.77;;;;;;;;;;5093441;28;20450;-72
2021/08/11 01:06:34;;;;;;;25.83;16.50;;;;;;;;;;5093463;28;20444;-72
2021/08/11 01:09:02;;;;;;;23.50;17.77;;;;;;;;;;5093468;28;20523;-72
2021/08/11 01:11:29;;;;;;;21.70;17.50;;;;;;;;;;5093790;28;20595;-72
2021/08/11 01:13:58;;;;;;;18.70;16.67;;;;;;;;;;5093399;28;20447;-72
2021/08/11 01:16:26;;;;;;;21.60;17.37;;;;;;;;;;5093205;28;20939;-72
2021/08/11 01:18:53;;;;;;;21.60;17.20;;;;;;;;;;5093515;28;20440;-72
2021/08/11 01:21:23;;;;;;;21.43;17.27;;;;;;;;;;5093312;28;20439;-73
2021/08/11 01:23:55;;;;;;;23.67;18.93;;;;;;;;;;5093464;28;20476;-72
2021/08/11 01:26:32;;;;;;;24.50;19.43;;;;;;;;;;5093329;28;20433;-72
2021/08/11 01:29:04;;;;;;;21.90;17.87;;;;;;;;;;5093750;28;20436;-72
2021/08/11 01:31:37;;;;;;;23.27;18.67;;;;;;;;;;5092909;28;20997;-72
2021/08/11 01:34:09;;;;;;;23.80;18.77;;;;;;;;;;5097164;28;20429;-72
2021/08/11 01:36:43;;;;;;;24.33;19.27;;;;;;;;;;5096912;28;20436;-72
2021/08/11 01:39:12;;;;;;;28.03;20.40;;;;;;;;;;5097154;28;20424;-72
2021/08/11 01:41:40;;;;;;;22.53;17.20;;;;;;;;;;5097020;28;20462;-72
2021/08/11 01:44:09;;;;;;;25.07;19.43;;;;;;;;;;5096920;28;20451;-72
2021/08/11 01:46:38;;;;;;;24.53;18.17;;;;;;;;;;5096964;28;20455;-72
2021/08/11 01:49:08;;;;;;;22.53;18.07;;;;;;;;;;5096915;28;20476;-72
2021/08/11 01:51:38;;;;;;;23.63;18.80;;;;;;;;;;5096904;28;20472;-72
2021/08/11 01:54:07;;;;;;;24.63;18.17;;;;;;;;;;5097417;28;20508;-72
2021/08/11 01:56:34;;;;;;;23.57;17.80;;;;;;;;;;5096478;28;20946;-72
2021/08/11 01:59:02;;;;;;;24.20;17.57;;;;;;;;;;5097073;28;20801;-72
2021/08/11 02:01:29;;;;;;;23.60;17.97;;;;;;;;;;5096529;28;20450;-72
2021/08/11 02:03:56;;;;;;;21.23;17.43;;;;;;;;;;5096786;28;20440;-72
2021/08/11 02:06:24;;;;;;;22.60;18.83;;;;;;;;;;5096597;28;20454;-72
2021/08/11 02:08:53;;;;;;;24.80;18.60;;;;;;;;;;5096602;28;20439;-72
2021/08/11 02:11:20;;;;;;;21.70;16.67;;;;;;;;;;5096449;28;20470;-72
2021/08/11 02:13:47;;;;;;;25.73;19.27;;;;;;;;;;5096588;28;20461;-72
2021/08/11 02:16:15;;;;;;;25.60;19.03;;;;;;;;;;5096557;28;20441;-72
2021/08/11 02:18:42;;;;;;;25.37;18.07;;;;;;;;;;5096371;28;20450;-72
2021/08/11 02:21:09;;;;;;;19.20;16.17;;;;;;;;;;5096893;28;20447;-72
2021/08/11 02:23:36;;;;;;;23.00;18.53;;;;;;;;;;5096079;28;20468;-72
2021/08/11 02:26:11;;;;;;;23.63;18.10;;;;;;;;;;5096246;28;20798;-72
2021/08/11 02:28:43;;;;;;;22.13;17.60;;;;;;;;;;5096391;28;20436;-72
2021/08/11 02:31:13;;;;;;;24.53;19.40;;;;;;;;;;5096559;28;20508;-72
2021/08/11 02:33:46;;;;;;;24.33;18.43;;;;;;;;;;5096190;28;20475;-72
2021/08/11 02:36:17;;;;;;;25.27;19.17;;;;;;;;;;5096639;28;20446;-72
2021/08/11 02:38:45;;;;;;;30.17;18.57;;;;;;;;;;5096679;28;20425;-72
2021/08/11 02:41:16;;;;;;;34.83;18.00;;;;;;;;;;5095971;28;20777;-72
2021/08/11 02:43:49;;;;;;;65.83;20.90;;;;;;;;;;5094835;28;20433;-72
2021/08/11 02:46:17;;;;;;;42.53;20.83;;;;;;;;;;5095943;28;20486;-72
2021/08/11 02:48:45;;;;;;;49.70;21.73;;;;;;;;;;5095802;28;20433;-72
2021/08/11 02:51:12;;;;;;;29.80;18.80;;;;;;;;;;5096228;28;20795;-72
2021/08/11 02:53:41;;;;;;;62.00;18.57;;;;;;;;;;5095714;28;20495;-72
2021/08/11 02:56:08;;;;;;;85.30;20.20;;;;;;;;;;5095378;28;20526;-72
2021/08/11 02:58:37;;;;;;;68.87;21.03;;;;;;;;;;5095314;28;20964;-72
2021/08/11 03:01:05;;;;;;;45.47;19.20;;;;;;;;;;5095230;28;20448;-72
2021/08/11 03:03:32;;;;;;;42.40;19.60;;;;;;;;;;5095760;28;20506;-72
2021/08/11 03:05:59;;;;;;;72.03;19.90;;;;;;;;;;5095146;28;20441;-72
2021/08/11 03:08:28;;;;;;;65.37;19.83;;;;;;;;;;5095351;28;20441;-73
2021/08/11 03:10:55;;;;;;;56.20;18.97;;;;;;;;;;5095380;28;21005;-73
2021/08/11 03:13:23;;;;;;;134.43;22.67;;;;;;;;;;5095516;28;20479;-72
2021/08/11 03:15:52;;;;;;;93.90;20.70;;;;;;;;;;5095286;28;20436;-72
2021/08/11 03:18:19;;;;;;;69.07;20.10;;;;;;;;;;5095480;28;21012;-72
2021/08/11 03:20:47;;;;;;;116.77;21.50;;;;;;;;;;5095191;28;20792;-72
2021/08/11 03:23:15;;;;;;;91.20;21.77;;;;;;;;;;5094756;28;20479;-72
2021/08/11 03:25:42;;;;;;;101.10;21.60;;;;;;;;;;5094788;28;20496;-71
2021/08/11 03:28:10;;;;;;;65.33;21.53;;;;;;;;;;5094704;28;20449;-73
2021/08/11 03:30:37;;;;;;;86.43;21.87;;;;;;;;;;5095276;28;20449;-72
2021/08/11 03:33:06;;;;;;;136.63;24.17;;;;;;;;;;5094858;28;20483;-72
2021/08/11 03:35:33;;;;;;;98.97;23.03;;;;;;;;;;5094558;28;20448;-72
2021/08/11 03:38:01;;;;;;;124.23;23.20;;;;;;;;;;5094710;28;20956;-72
2021/08/11 03:40:28;;;;;;;135.83;23.00;;;;;;;;;;5095273;28;21010;-72
2021/08/11 03:42:55;;;;;;;82.07;22.20;;;;;;;;;;5094911;28;20501;-72
2021/08/11 03:45:22;;;;;;;117.53;22.60;;;;;;;;;;5094329;28;20444;-72
2021/08/11 03:47:50;;;;;;;112.37;20.27;;;;;;;;;;5094336;28;20496;-72
2021/08/11 03:50:20;;;;;;;139.17;22.43;;;;;;;;;;5094470;28;20451;-72
2021/08/11 03:52:47;;;;;;;224.57;25.20;;;;;;;;;;5094454;28;20478;-72
2021/08/11 03:55:15;;;;;;;186.30;26.47;;;;;;;;;;5095011;28;20443;-72
2021/08/11 03:57:43;;;;;;;127.23;21.83;;;;;;;;;;5094449;28;20531;-72
2021/08/11 04:00:11;;;;;;;163.43;23.70;;;;;;;;;;5094245;28;20436;-72
2021/08/11 04:02:38;;;;;;;231.00;25.97;;;;;;;;;;5094602;28;20443;-70
2021/08/11 04:05:06;;;;;;;259.10;27.00;;;;;;;;;;5093996;28;20926;-71
2021/08/11 04:07:35;;;;;;;215.33;25.07;;;;;;;;;;5094772;28;20928;-71
2021/08/11 04:10:02;;;;;;;215.73;25.70;;;;;;;;;;5094229;28;20505;-71
2021/08/11 04:12:29;;;;;;;80.37;18.00;;;;;;;;;;5093753;28;20479;-71
2021/08/11 04:14:57;;;;;;;131.80;23.00;;;;;;;;;;5093829;28;20451;-71
2021/08/11 04:17:24;;;;;;;91.67;22.07;;;;;;;;;;5093809;28;20952;-70
2021/08/11 04:19:51;;;;;;;63.80;20.07;;;;;;;;;;5094406;28;20532;-72
2021/08/11 04:22:18;;;;;;;114.10;22.90;;;;;;;;;;5094062;28;20530;-73
2021/08/11 04:24:47;;;;;;;111.57;21.37;;;;;;;;;;5093571;28;20468;-71
2021/08/11 04:27:14;;;;;;;139.40;24.40;;;;;;;;;;5094357;28;20511;-72
2021/08/11 04:29:41;;;;;;;137.83;22.83;;;;;;;;;;5094556;28;20435;-72
2021/08/11 04:32:09;;;;;;;175.50;27.07;;;;;;;;;;5099182;28;20477;-72
2021/08/11 04:34:36;;;;;;;92.90;22.03;;;;;;;;;;5108111;28;20447;-72
2021/08/11 04:37:05;;;;;;;75.93;21.50;;;;;;;;;;5113714;28;20967;-72
2021/08/11 04:39:32;;;;;;;90.93;21.90;;;;;;;;;;5114395;28;20435;-72
2021/08/11 04:42:00;;;;;;;156.40;24.00;;;;;;;;;;5113817;28;20447;-72
2021/08/11 04:44:28;;;;;;;54.60;20.37;;;;;;;;;;5114202;28;20809;-72
2021/08/11 04:46:55;;;;;;;60.23;19.97;;;;;;;;;;5114039;28;20440;-72
2021/08/11 04:49:23;;;;;;;45.23;19.90;;;;;;;;;;5113990;28;20482;-71
2021/08/11 04:51:50;;;;;;;69.97;20.80;;;;;;;;;;5113899;28;20489;-72
2021/08/11 04:54:17;;;;;;;108.67;22.50;;;;;;;;;;5113934;28;20482;-72
2021/08/11 04:56:44;;;;;;;70.00;20.33;;;;;;;;;;5113957;28;20439;-72
2021/08/11 04:59:13;;;;;;;83.80;22.40;;;;;;;;;;5114026;28;20458;-72
2021/08/11 05:01:40;;;;;;;96.13;21.80;;;;;;;;;;5105350;28;20450;-71
2021/08/11 05:04:12;;;;;;;75.63;20.30;;;;;;;;;;5093688;28;20446;-71
2021/08/11 05:06:45;;;;;;;41.70;19.40;;;;;;;;;;5094399;28;20424;-72
2021/08/11 05:09:12;;;;;;;57.73;20.10;;;;;;;;;;5097641;28;20428;-72
2021/08/11 05:11:41;;;;;;;35.87;18.83;;;;;;;;;;5097637;28;20441;-71
2021/08/11 05:14:08;;;;;;;33.33;19.23;;;;;;;;;;5097205;28;20479;-71
2021/08/11 05:16:37;;;;;;;60.53;19.43;;;;;;;;;;5097257;28;20443;-71
2021/08/11 05:19:04;;;;;;;47.97;20.10;;;;;;;;;;5098326;28;20539;-71
2021/08/11 05:21:32;;;;;;;54.80;19.20;;;;;;;;;;5097124;28;20444;-72
2021/08/11 05:23:59;;;;;;;37.53;19.90;;;;;;;;;;5097145;28;20487;-71
2021/08/11 05:26:26;;;;;;;30.27;19.77;;;;;;;;;;5097405;28;20527;-72
2021/08/11 05:28:53;;;;;;;31.00;19.00;;;;;;;;;;5096966;28;20444;-71
2021/08/11 05:31:21;;;;;;;63.37;18.77;;;;;;;;;;5097019;28;20439;-71
2021/08/11 05:33:49;;;;;;;26.00;16.53;;;;;;;;;;5096825;28;20472;-72
2021/08/11 05:36:17;;;;;;;19.33;17.27;;;;;;;;;;5096871;28;20528;-71
2021/08/11 05:38:44;;;;;;;24.80;17.60;;;;;;;;;;5096900;28;21067;-72
2021/08/11 05:41:11;;;;;;;24.13;18.00;;;;;;;;;;5097106;28;20444;-70
2021/08/11 05:43:38;;;;;;;30.70;20.43;;;;;;;;;;5096220;28;20452;-70
2021/08/11 05:46:06;;;;;;;35.57;19.60;;;;;;;;;;5096998;28;20793;-71
2021/08/11 05:48:33;;;;;;;23.67;18.37;;;;;;;;;;5097308;28;20447;-71
2021/08/11 05:51:02;;;;;;;28.27;20.07;;;;;;;;;;5100869;28;20444;-71
2021/08/11 05:53:29;;;;;;;30.13;19.33;;;;;;;;;;5102913;28;20501;-71
2021/08/11 05:55:56;;;;;;;29.83;20.30;;;;;;;;;;5105567;28;20439;-71
2021/08/11 05:58:23;;;;;;;27.43;20.27;;;;;;;;;;5116798;28;20440;-71
2021/08/11 06:00:51;;;;;;;28.23;20.13;;;;;;;;;;5116798;28;20439;-71
2021/08/11 06:03:18;;;;;;;30.70;21.70;;;;;;;;;;5116723;28;20446;-71
2021/08/11 06:05:45;;;;;;;25.93;19.33;;;;;;;;;;5116927;28;20956;-72
2021/08/11 06:08:13;;;;;;;27.93;19.87;;;;;;;;;;5116625;28;20454;-71
2021/08/11 06:10:41;;;;;;;27.17;19.70;;;;;;;;;;5117047;28;20527;-71
2021/08/11 06:13:08;;;;;;;25.17;17.50;;;;;;;;;;5116996;28;20483;-71
2021/08/11 06:15:35;;;;;;;25.60;19.40;;;;;;;;;;5116686;28;20450;-72
2021/08/11 06:18:02;;;;;;;32.93;20.27;;;;;;;;;;5116998;28;20523;-71
2021/08/11 06:20:29;;;;;;;29.07;19.80;;;;;;;;;;5110086;28;20494;-72
2021/08/11 06:22:57;;;;;;;33.53;21.80;;;;;;;;;;5095899;28;20563;-72
2021/08/11 06:25:26;;;;;;;30.43;19.70;;;;;;;;;;5096203;28;20451;-72
2021/08/11 06:27:53;;;;;;;32.30;21.80;;;;;;;;;;5095849;28;20450;-72
2021/08/11 06:30:21;;;;;;;29.93;21.80;;;;;;;;;;5096170;28;20442;-72
2021/08/11 06:32:48;;;;;;;25.57;21.10;;;;;;;;;;5095661;28;20448;-72
2021/08/11 06:35:15;;;;;;;29.33;20.80;;;;;;;;;;5096079;28;20439;-73
2021/08/11 06:37:46;;;;;;;26.17;18.67;;;;;;;;;;5096044;28;20440;-73
2021/08/11 06:40:14;;;;;;;25.03;19.10;;;;;;;;;;5096380;28;20439;-72
2021/08/11 06:42:42;;;;;;;27.00;18.67;;;;;;;;;;5096007;28;20441;-73
2021/08/11 06:45:10;;;;;;;22.47;18.20;;;;;;;;;;5095833;28;20440;-74
2021/08/11 06:47:37;;;;;;;23.90;18.60;;;;;;;;;;5100154;28;20452;-73
2021/08/11 06:50:05;;;;;;;23.70;18.80;;;;;;;;;;5101282;28;20480;-73
2021/08/11 06:52:34;;;;;;;30.97;17.57;;;;;;;;;;5104574;28;20472;-72
2021/08/11 06:55:01;;;;;;;22.50;17.87;;;;;;;;;;5116037;28;20486;-73
2021/08/11 06:57:29;;;;;;;27.47;19.63;;;;;;;;;;5115768;28;20449;-73
2021/08/11 06:59:57;;;;;;;23.73;18.57;;;;;;;;;;5115925;28;20437;-73
2021/08/11 07:02:24;;;;;;;26.07;18.67;;;;;;;;;;5116087;28;20455;-73
2021/08/11 07:04:52;;;;;;;24.00;18.67;;;;;;;;;;5097644;28;20472;-73
2021/08/11 07:07:19;;;;;;;21.77;18.50;;;;;;;;;;5115857;28;20475;-74
2021/08/11 07:09:46;;;;;;;23.20;19.27;;;;;;;;;;5115799;28;20437;-74
2021/08/11 07:12:13;;;;;;;23.90;19.77;;;;;;;;;;5116272;28;20433;-73
2021/08/11 07:14:41;;;;;;;25.43;20.00;;;;;;;;;;5115565;28;20474;-74
2021/08/11 07:17:09;;;;;;;25.70;20.07;;;;;;;;;;5107651;28;20527;-74
2021/08/11 07:19:37;;;;;;;22.70;18.93;;;;;;;;;;5094735;28;20453;-74
2021/08/11 07:22:05;;;;;;;23.30;18.97;;;;;;;;;;5095144;28;20436;-74
2021/08/11 07:24:32;;;;;;;23.37;20.53;;;;;;;;;;5093884;28;21004;-74
2021/08/11 07:26:59;;;;;;;26.17;19.53;;;;;;;;;;5094596;28;20587;-73
2021/08/11 07:29:26;;;;;;;25.47;21.10;;;;;;;;;;5094831;28;20878;-73
2021/08/11 07:31:53;;;;;;;26.87;21.07;;;;;;;;;;5094293;28;20529;-74
2021/08/11 07:34:22;;;;;;;27.63;22.00;;;;;;;;;;5095056;28;20490;-74
2021/08/11 07:36:49;;;;;;;31.63;21.47;;;;;;;;;;5094928;28;20950;-75
2021/08/11 07:39:16;;;;;;;26.00;22.20;;;;;;;;;;5094390;28;20439;-71
2021/08/11 07:41:43;;;;;;;25.80;21.43;;;;;;;;;;5094183;28;20437;-72
2021/08/11 07:44:11;;;;;;;32.47;22.30;;;;;;;;;;5094576;28;20459;-72
2021/08/11 07:46:38;;;;;;;31.13;22.50;;;;;;;;;;5094571;28;20441;-72
2021/08/11 07:49:05;;;;;;;26.00;22.60;;;;;;;;;;5094323;28;20933;-72
2021/08/11 07:51:34;;;;;;;29.73;23.30;;;;;;;;;;5094529;28;20441;-72
2021/08/11 07:54:01;;;;;;;32.03;25.47;;;;;;;;;;5094145;28;20541;-72
2021/08/11 07:56:28;;;;;;;33.10;24.00;;;;;;;;;;5094630;28;20847;-73
2021/08/11 07:58:55;;;;;;;30.53;25.37;;;;;;;;;;5094655;28;20530;-72
2021/08/11 08:01:23;;;;;;;35.40;28.97;;;;;;;;;;5094170;28;20451;-72
2021/08/11 08:03:50;;;;;;;33.10;28.33;;;;;;;;;;5094342;28;20531;-73
2021/08/11 08:06:17;;;;;;;31.83;28.37;;;;;;;;;;5094402;28;20445;-75
2021/08/11 08:08:46;;;;;;;31.83;26.43;;;;;;;;;;5094580;28;20436;-74
2021/08/11 08:11:13;;;;;;;31.43;27.57;;;;;;;;;;5094113;28;20936;-75
2021/08/11 08:13:40;;;;;;;33.13;26.57;;;;;;;;;;5102974;28;20476;-76
2021/08/11 08:16:08;;;;;;;33.40;27.70;;;;;;;;;;5095399;28;20451;-74
2021/08/11 08:18:35;;;;;;;30.87;26.70;;;;;;;;;;5106944;28;20452;-74
2021/08/11 08:21:03;;;;;;;34.27;28.60;;;;;;;;;;5114281;28;20436;-73
2021/08/11 08:23:30;;;;;;;37.27;29.97;;;;;;;;;;5114180;28;20500;-74
2021/08/11 08:25:59;;;;;;;36.90;30.43;;;;;;;;;;5114285;28;20455;-74
2021/08/11 08:28:26;;;;;;;38.43;30.17;;;;;;;;;;5114054;28;20934;-74
2021/08/11 08:30:53;;;;;;;36.97;29.23;;;;;;;;;;5113946;28;20444;-75
2021/08/11 08:33:20;;;;;;;38.87;31.70;;;;;;;;;;5114188;28;20479;-73
2021/08/11 08:35:48;;;;;;;36.60;30.57;;;;;;;;;;5114726;28;20491;-73
2021/08/11 08:38:18;;;;;;;35.50;29.13;;;;;;;;;;5114923;28;20530;-73
2021/08/11 08:40:46;;;;;;;42.23;32.97;;;;;;;;;;5113937;28;20435;-74
2021/08/11 08:43:15;;;;;;;43.23;32.47;;;;;;;;;;5101305;28;20448;-73
2021/08/11 08:45:45;;;;;;;37.63;31.00;;;;;;;;;;5093563;28;20448;-73
2021/08/11 08:48:12;;;;;;;43.10;33.90;;;;;;;;;;5093731;28;20493;-73
2021/08/11 08:50:40;;;;;;;41.80;32.30;;;;;;;;;;5093596;28;20445;-76
2021/08/11 08:53:08;;;;;;;43.87;33.87;;;;;;;;;;5093779;28;20445;-73
2021/08/11 08:55:36;;;;;;;41.70;30.47;;;;;;;;;;5093823;28;20488;-74
2021/08/11 08:58:03;;;;;;;44.00;33.50;;;;;;;;;;5093554;28;20536;-74
2021/08/11 09:00:34;;;;;;;43.40;30.80;;;;;;;;;;5093615;28;20808;-72
2021/08/11 09:03:02;;;;;;;42.53;31.63;;;;;;;;;;5093645;28;20425;-72
2021/08/11 09:05:29;;;;;;;44.10;31.50;;;;;;;;;;5093308;28;20453;-73
2021/08/11 09:07:56;;;;;;;43.87;31.83;;;;;;;;;;5093954;28;20531;-73
2021/08/11 09:10:25;;;;;;;47.20;34.03;;;;;;;;;;5093431;28;20438;-73
2021/08/11 09:12:54;;;;;;;49.03;31.60;;;;;;;;;;5093192;28;20958;-74
2021/08/11 09:15:32;;;;;;;39.60;29.47;;;;;;;;;;5093256;28;20473;-71
2021/08/11 09:18:10;;;;;;;41.07;27.07;;;;;;;;;;5100948;28;20532;-72
2021/08/11 09:20:38;;;;;;;38.73;29.63;;;;;;;;;;5094749;28;20545;-79
2021/08/11 09:23:05;;;;;;;40.80;29.20;;;;;;;;;;5093162;28;20468;-74
2021/08/11 09:25:35;;;;;;;44.90;30.00;;;;;;;;;;5104803;28;20455;-75
2021/08/11 09:28:03;;;;;;;39.30;28.47;;;;;;;;;;5113318;28;20949;-74
2021/08/11 09:30:33;;;;;;;40.13;29.20;;;;;;;;;;5113597;28;20436;-72
2021/08/11 09:33:02;;;;;;;44.50;33.07;;;;;;;;;;5113449;28;20492;-74
2021/08/11 09:35:30;;;;;;;43.67;30.50;;;;;;;;;;5112971;28;20471;-76
2021/08/11 09:37:58;;;;;;;43.40;31.90;;;;;;;;;;5112997;28;20531;-73
2021/08/11 09:40:27;;;;;;;39.90;29.57;;;;;;;;;;5113083;28;20777;-73
2021/08/11 09:42:55;;;;;;;40.17;30.43;;;;;;;;;;5113193;28;20439;-72
2021/08/11 09:45:23;;;;;;;37.07;28.20;;;;;;;;;;5113439;28;20433;-73
2021/08/11 09:47:54;;;;;;;37.03;29.70;;;;;;;;;;5113056;28;20444;-73
2021/08/11 09:50:32;;;;;;;34.43;27.90;;;;;;;;;;5114077;28;20448;-72
2021/08/11 09:52:59;;;;;;;33.63;26.17;;;;;;;;;;5113901;28;20521;-76
2021/08/11 09:55:27;;;;;;;34.37;27.07;;;;;;;;;;5117130;28;20472;-73
2021/08/11 09:57:54;;;;;;;33.37;26.70;;;;;;;;;;5117179;28;20827;-73
2021/08/11 10:00:21;;;;;;;35.20;28.77;;;;;;;;;;5117470;28;20805;-74
2021/08/11 10:03:02;;;;;;;37.37;27.43;;;;;;;;;;5116821;28;20971;-73
2021/08/11 10:05:39;;;;;;;35.40;26.57;;;;;;;;;;5117419;28;20489;-74
2021/08/11 10:08:07;;;;;;;35.33;24.90;;;;;;;;;;5116709;28;20976;-74
2021/08/11 10:10:46;;;;;;;37.10;25.30;;;;;;;;;;5116916;28;20975;-77
2021/08/11 10:13:13;;;;;;;34.10;27.17;;;;;;;;;;5116657;28;20436;-75
2021/08/11 10:15:41;;;;;;;41.47;31.40;;;;;;;;;;5116746;28;20483;-73
2021/08/11 10:18:10;;;;;;;39.03;27.00;;;;;;;;;;5116678;28;20445;-76
2021/08/11 10:20:37;;;;;;;31.03;25.27;;;;;;;;;;5117521;28;20429;-85
2021/08/11 10:23:06;;;;;;;33.60;23.67;;;;;;;;;;5118414;28;20545;-85
2021/08/11 10:25:33;;;;;;;36.30;26.60;;;;;;;;;;5116996;28;20481;-86
2021/08/11 10:28:06;;;;;;;34.40;25.70;;;;;;;;;;5117636;28;20448;-84
2021/08/11 10:30:34;;;;;;;35.60;28.47;;;;;;;;;;5119844;28;20485;-85
2021/08/11 10:33:07;;;;;;;29.27;22.10;;;;;;;;;;5117564;28;20447;-76
2021/08/11 10:35:35;;;;;;;28.87;20.07;;;;;;;;;;5116840;28;20467;-73
2021/08/11 10:38:05;;;;;;;29.93;24.03;;;;;;;;;;5116086;28;20498;-74
2021/08/11 10:40:34;;;;;;;32.53;24.77;;;;;;;;;;5116296;28;20437;-73
2021/08/11 10:43:02;;;;;;;29.07;22.40;;;;;;;;;;5116703;28;20528;-74
2021/08/11 10:45:29;;;;;;;30.30;24.00;;;;;;;;;;5117121;28;20526;-74
2021/08/11 10:47:56;;;;;;;22.60;18.47;;;;;;;;;;5115966;28;20523;-74
2021/08/11 10:50:24;;;;;;;23.93;20.87;;;;;;;;;;5116209;28;20435;-74
2021/08/11 10:53:06;;;;;;;26.27;20.37;;;;;;;;;;5115718;28;20450;-78
2021/08/11 10:55:43;;;;;;;28.47;21.00;;;;;;;;;;5116555;28;20503;-76
2021/08/11 10:58:10;;;;;;;30.00;23.20;;;;;;;;;;5116178;28;20438;-75
2021/08/11 11:00:40;;;;;;;26.43;21.27;;;;;;;;;;5116083;28;20446;-75
2021/08/11 11:03:07;;;;;;;25.10;20.50;;;;;;;;;;5116840;28;20763;-74
2021/08/11 11:06:05;;;;;;;26.30;20.47;;;;;;;;;;5114765;28;20446;-74
2021/08/11 11:08:32;;;;;;;28.10;22.23;;;;;;;;;;5116257;28;20412;-74
2021/08/11 11:11:21;;;;;;;23.67;20.03;;;;;;;;;;5115502;28;20442;-76
2021/08/11 11:13:48;;;;;;;23.30;19.90;;;;;;;;;;5115498;28;20952;-73
2021/08/11 11:16:15;;;;;;;23.07;18.23;;;;;;;;;;5116383;28;20568;-75
2021/08/11 11:19:05;;;;;;;27.43;22.20;;;;;;;;;;5115518;28;20442;-73
2021/08/11 11:21:32;;;;;;;28.00;21.70;;;;;;;;;;5116551;28;20427;-83
2021/08/11 11:23:59;;;;;;;25.70;19.30;;;;;;;;;;5116479;28;20987;-82
2021/08/11 11:26:33;;;;;;;23.10;18.90;;;;;;;;;;5116091;28;20481;-85
2021/08/11 11:29:02;;;;;;;20.23;15.10;;;;;;;;;;5118345;28;20439;-81
2021/08/11 11:31:29;;;;;;;20.10;15.60;;;;;;;;;;5116372;28;20449;-82
2021/08/11 11:34:17;;;;;;;19.90;14.80;;;;;;;;;;5118394;28;20457;-84
2021/08/11 11:36:44;;;;;;;19.63;16.23;;;;;;;;;;5118205;28;20478;-83
2021/08/11 11:39:13;;;;;;;23.57;18.50;;;;;;;;;;5115962;28;20463;-83
2021/08/11 11:42:01;;;;;;;21.90;16.90;;;;;;;;;;5115821;28;20884;-85
2021/08/11 11:44:49;;;;;;;24.43;18.70;;;;;;;;;;5116920;28;20438;-84
2021/08/11 11:47:17;;;;;;;25.53;17.67;;;;;;;;;;5117511;28;20443;-83
2021/08/11 11:49:45;;;;;;;26.53;18.00;;;;;;;;;;5116254;28;20434;-83
2021/08/11 11:52:15;;;;;;;27.40;20.90;;;;;;;;;;5118173;28;20450;-84
2021/08/11 11:54:46;;;;;;;27.20;17.00;;;;;;;;;;5119141;28;20445;-80
2021/08/11 11:57:14;;;;;;;22.73;16.80;;;;;;;;;;5120948;28;20438;-84
2021/08/11 11:59:45;;;;;;;22.37;16.37;;;;;;;;;;5115712;28;20453;-84
2021/08/11 12:02:19;;;;;;;18.87;15.23;;;;;;;;;;5117411;28;20438;-81
2021/08/11 12:04:59;;;;;;;21.50;14.33;;;;;;;;;;5116008;28;20441;-79
2021/08/11 12:07:29;;;;;;;20.83;14.90;;;;;;;;;;5115172;28;20993;-83
2021/08/11 12:09:57;;;;;;;19.60;13.90;;;;;;;;;;5115722;28;20522;-81
2021/08/11 12:12:24;;;;;;;23.13;16.40;;;;;;;;;;5116999;28;20907;-84
2021/08/11 12:14:51;;;;;;;19.70;14.40;;;;;;;;;;5115087;28;20445;-76
2021/08/11 12:17:29;;;;;;;14.50;10.93;;;;;;;;;;5114277;28;20457;-68
2021/08/11 12:19:56;;;;;;;13.87;10.43;;;;;;;;;;5114760;28;20466;-81
2021/08/11 12:22:34;;;;;;;12.93;10.70;;;;;;;;;;5114523;28;20506;-79
2021/08/11 12:25:01;;;;;;;16.03;11.97;;;;;;;;;;5115048;28;20507;-81
2021/08/11 12:27:28;;;;;;;15.20;11.30;;;;;;;;;;5114443;28;20794;-79
2021/08/11 12:30:10;;;;;;;14.53;10.70;;;;;;;;;;5114711;28;20731;-83
2021/08/11 12:32:39;;;;;;;18.83;11.13;;;;;;;;;;5112147;28;20442;-82
2021/08/11 12:35:07;;;;;;;19.30;10.73;;;;;;;;;;5117307;28;20474;-77
2021/08/11 12:37:43;;;;;;;13.63;10.63;;;;;;;;;;5114867;28;20440;-83
2021/08/11 12:40:26;;;;;;;14.50;11.63;;;;;;;;;;5114820;28;20445;-82
2021/08/11 12:42:54;;;;;;;16.13;11.33;;;;;;;;;;5114287;28;20430;-81
2021/08/11 12:45:21;;;;;;;12.30;9.73;;;;;;;;;;5114464;28;20457;-82
2021/08/11 12:47:49;;;;;;;14.47;11.10;;;;;;;;;;5113992;28;20451;-83
2021/08/11 12:50:17;;;;;;;11.70;9.37;;;;;;;;;;5114363;28;20446;-83
2021/08/11 12:52:53;;;;;;;13.40;10.37;;;;;;;;;;5114187;28;20471;-81
2021/08/11 12:55:31;;;;;;;13.93;10.00;;;;;;;;;;5098591;28;20473;-82
2021/08/11 12:57:58;;;;;;;13.63;10.70;;;;;;;;;;5113029;28;20439;-83
2021/08/11 13:00:42;;;;;;;15.70;11.70;;;;;;;;;;5114719;28;20479;-81
2021/08/11 13:03:11;;;;;;;14.30;11.43;;;;;;;;;;5115655;28;20507;-82
2021/08/11 13:05:51;;;;;;;12.23;10.00;;;;;;;;;;5116139;28;20999;-82
2021/08/11 13:08:19;;;;;;;13.83;12.00;;;;;;;;;;5114917;28;20441;-82
2021/08/11 13:10:56;;;;;;;12.57;10.67;;;;;;;;;;5115734;28;20781;-82
2021/08/11 13:13:24;;;;;;;13.20;10.80;;;;;;;;;;5116128;28;20456;-82
2021/08/11 13:16:06;;;;;;;12.70;10.80;;;;;;;;;;5116134;28;20477;-82
2021/08/11 13:18:35;;;;;;;14.13;11.37;;;;;;;;;;5114707;28;20812;-84
2021/08/11 13:21:02;;;;;;;14.10;11.20;;;;;;;;;;5114358;28;20460;-82
2021/08/11 13:23:29;;;;;;;13.73;12.33;;;;;;;;;;5114030;28;20509;-83
2021/08/11 13:25:56;;;;;;;12.17;10.50;;;;;;;;;;5093973;28;20501;-83
2021/08/11 13:28:24;;;;;;;13.90;11.00;;;;;;;;;;5094489;28;20934;-82
2021/08/11 13:30:52;;;;;;;12.90;11.50;;;;;;;;;;5097575;28;20445;-82
2021/08/11 13:33:19;;;;;;;13.57;11.93;;;;;;;;;;5097180;28;21026;-83
2021/08/11 13:35:48;;;;;;;12.67;11.37;;;;;;;;;;5097416;28;20479;-82
2021/08/11 13:38:15;;;;;;;11.63;10.50;;;;;;;;;;5097842;28;20444;-80
2021/08/11 13:40:43;;;;;;;12.50;11.20;;;;;;;;;;5098255;28;20442;-81
2021/08/11 13:43:10;;;;;;;11.63;10.43;;;;;;;;;;5096994;28;20451;-77
2021/08/11 13:45:39;;;;;;;12.83;11.40;;;;;;;;;;5097717;28;20537;-80
2021/08/11 13:48:07;;;;;;;13.03;11.10;;;;;;;;;;5097237;28;20444;-82
2021/08/11 13:50:34;;;;;;;12.93;9.57;;;;;;;;;;5097811;28;20512;-81
2021/08/11 13:53:02;;;;;;;13.10;11.03;;;;;;;;;;5097343;28;20794;-81
2021/08/11 13:55:30;;;;;;;10.93;9.83;;;;;;;;;;5097210;28;20579;-82
2021/08/11 13:57:57;;;;;;;11.90;10.60;;;;;;;;;;5096963;28;20447;-80
2021/08/11 14:00:26;;;;;;;11.27;10.17;;;;;;;;;;5096657;28;20469;-81
2021/08/11 14:02:53;;;;;;;12.40;11.20;;;;;;;;;;5097191;28;20445;-81
2021/08/11 14:05:20;;;;;;;13.47;11.60;;;;;;;;;;5097278;28;20504;-81
2021/08/11 14:07:52;;;;;;;12.47;10.00;;;;;;;;;;5097965;28;20448;-79
2021/08/11 14:10:22;;;;;;;16.17;11.30;;;;;;;;;;5096638;28;20495;-79
2021/08/11 14:12:49;;;;;;;10.60;9.53;;;;;;;;;;5096773;28;20794;-80
2021/08/11 14:15:16;;;;;;;15.70;11.63;;;;;;;;;;5096382;28;20449;-81
2021/08/11 14:17:43;;;;;;;13.70;12.40;;;;;;;;;;5096410;28;20480;-79
2021/08/11 14:20:11;;;;;;;12.73;10.60;;;;;;;;;;5095954;28;20450;-79
2021/08/11 14:22:38;;;;;;;19.33;17.30;;;;;;;;;;5095958;28;20451;-81
2021/08/11 14:25:06;;;;;;;13.43;10.20;;;;;;;;;;5096527;28;20448;-83